createdAt,value
2022-09-23T00:02:20.823Z,101700.63
2022-09-23T00:04:48.326Z,101700.94
2022-09-23T00:07:16.340Z,101694.06
2022-09-23T00:09:43.693Z,101696.06
2022-09-23T00:12:12.463Z,101698.00
2022-09-23T00:14:40.043Z,101694.72
2022-09-23T00:17:07.785Z,101695.56
2022-09-23T00:19:35.323Z,101693.25
2022-09-23T00:22:02.777Z,101690.78
2022-09-23T00:24:32.303Z,101696.03
2022-09-23T00:26:59.686Z,101692.59
2022-09-23T00:29:28.451Z,101681.66
2022-09-23T00:31:55.880Z,101678.38
2022-09-23T00:34:23.315Z,101678.38
2022-09-23T00:36:50.803Z,101677.06
2022-09-23T00:39:18.238Z,101611.00
2022-09-23T00:41:45.686Z,101666.44
2022-09-23T00:44:40.092Z,101657.13
2022-09-23T00:47:13.541Z,101660.72
2022-09-23T00:49:41.119Z,101659.38
2022-09-23T00:52:12.155Z,101657.75
2022-09-23T00:54:39.996Z,101659.22
2022-09-23T00:57:08.002Z,101663.13
2022-09-23T00:59:35.457Z,101656.56
2022-09-23T01:02:03.492Z,101658.69
2022-09-23T01:04:32.615Z,101665.72
2022-09-23T01:06:59.997Z,101673.03
2022-09-23T01:09:27.673Z,101656.84
2022-09-23T01:11:58.108Z,101652.59
2022-09-23T01:14:34.953Z,101648.34
2022-09-23T01:17:05.669Z,101655.72
2022-09-23T01:19:47.518Z,101649.66
2022-09-23T01:22:19.095Z,101650.78
2022-09-23T01:24:48.900Z,101642.16
2022-09-23T01:27:26.992Z,101641.47
2022-09-23T01:30:09.992Z,101639.03
2022-09-23T01:32:45.758Z,101633.81
2022-09-23T01:35:20.961Z,101642.59
2022-09-23T01:37:51.074Z,101636.41
2022-09-23T01:40:21.864Z,101638.53
2022-09-23T01:42:55.193Z,101635.75
2022-09-23T01:45:25.827Z,101625.50
2022-09-23T01:47:56.184Z,101633.47
2022-09-23T01:50:44.329Z,101621.41
2022-09-23T01:53:13.690Z,101627.75
2022-09-23T01:55:42.737Z,101630.34
2022-09-23T01:58:13.052Z,101623.66
2022-09-23T02:00:43.458Z,101626.25
2022-09-23T02:03:15.199Z,101624.78
2022-09-23T02:05:45.056Z,101619.41
2022-09-23T02:08:15.581Z,101622.16
2022-09-23T02:10:45.872Z,101619.72
2022-09-23T02:13:16.064Z,101613.69
2022-09-23T02:15:47.483Z,101609.59
2022-09-23T02:18:18.149Z,101607.97
2022-09-23T02:20:47.364Z,101606.63
2022-09-23T02:23:18.296Z,101604.44
2022-09-23T02:25:53.070Z,101595.16
2022-09-23T02:28:22.564Z,101596.97
2022-09-23T02:30:53.760Z,101593.84
2022-09-23T02:33:25.363Z,101595.94
2022-09-23T02:35:55.090Z,101590.56
2022-09-23T02:38:29.178Z,101585.50
2022-09-23T02:40:59.990Z,101577.00
2022-09-23T02:43:35.380Z,101580.91
2022-09-23T02:46:03.307Z,101580.41
2022-09-23T02:48:34.854Z,101578.09
2022-09-23T02:51:03.624Z,101575.50
2022-09-23T02:53:33.423Z,101574.81
2022-09-23T02:56:00.887Z,101562.78
2022-09-23T02:58:28.945Z,101564.38
2022-09-23T03:01:03.181Z,101560.63
2022-09-23T03:03:37.916Z,101562.56
2022-09-23T03:06:09.893Z,101544.59
2022-09-23T03:08:42.946Z,101564.06
2022-09-23T03:11:12.955Z,101562.41
2022-09-23T03:13:55.166Z,101556.38
2022-09-23T03:16:27.737Z,101560.31
2022-09-23T03:18:58.746Z,101556.91
2022-09-23T03:21:29.402Z,101557.22
2022-09-23T03:23:59.829Z,101557.09
2022-09-23T03:26:30.078Z,101554.16
2022-09-23T03:28:58.608Z,101555.00
2022-09-23T03:31:26.386Z,101551.91
2022-09-23T03:33:55.677Z,101543.28
2022-09-23T03:36:45.378Z,101536.75
2022-09-23T03:39:16.295Z,101542.00
2022-09-23T03:41:45.961Z,101536.91
2022-09-23T03:44:13.417Z,101542.47
2022-09-23T03:46:42.846Z,101530.41
2022-09-23T03:49:11.669Z,101528.56
2022-09-23T03:51:43.984Z,101526.91
2022-09-23T03:54:12.169Z,101523.66
2022-09-23T03:56:39.646Z,101522.78
2022-09-23T03:59:07.093Z,101521.19
2022-09-23T04:01:34.550Z,101515.97
2022-09-23T04:04:02.227Z,101518.13
2022-09-23T04:06:29.704Z,101514.84
2022-09-23T04:08:59.357Z,101509.78
2022-09-23T04:11:26.818Z,101512.44
2022-09-23T04:13:56.708Z,101509.00
2022-09-23T04:16:24.577Z,101504.41
2022-09-23T04:18:52.115Z,101508.69
2022-09-23T04:21:19.805Z,101506.25
2022-09-23T04:23:47.373Z,101507.88
2022-09-23T04:26:16.495Z,101509.66
2022-09-23T04:28:43.925Z,101503.78
2022-09-23T04:31:11.473Z,101503.63
2022-09-23T04:33:39.110Z,101505.44
2022-09-23T04:36:06.770Z,101503.31
2022-09-23T04:38:34.323Z,101497.28
2022-09-23T04:41:01.716Z,101497.44
2022-09-23T04:43:30.461Z,101496.63
2022-09-23T04:46:01.426Z,101492.41
2022-09-23T04:48:29.017Z,101485.50
2022-09-23T04:51:02.178Z,101429.38
2022-09-23T04:53:29.954Z,101488.78
2022-09-23T04:56:01.962Z,101495.63
2022-09-23T04:58:30.942Z,101497.44
2022-09-23T05:01:02.997Z,101499.06
2022-09-23T05:03:35.647Z,101503.47
2022-09-23T05:06:03.109Z,101502.00
2022-09-23T05:08:30.643Z,101510.47
2022-09-23T05:10:58.410Z,101503.16
2022-09-23T05:13:25.915Z,101503.50
2022-09-23T05:15:59.582Z,101504.28
2022-09-23T05:18:26.990Z,101505.75
2022-09-23T05:20:55.384Z,101504.13
2022-09-23T05:23:22.836Z,101507.25
2022-09-23T05:25:50.484Z,101496.94
2022-09-23T05:28:19.992Z,101506.25
2022-09-23T05:30:47.629Z,101501.69
2022-09-23T05:33:16.365Z,101496.94
2022-09-23T05:35:47.117Z,101505.94
2022-09-23T05:38:16.513Z,101507.75
2022-09-23T05:40:44.442Z,101502.19
2022-09-23T05:43:11.863Z,101507.41
2022-09-23T05:45:39.305Z,101505.47
2022-09-23T05:48:06.672Z,101508.22
2022-09-23T05:50:35.404Z,101510.66
2022-09-23T05:53:02.858Z,101516.38
2022-09-23T05:55:30.835Z,101503.34
2022-09-23T05:57:58.458Z,101512.78
2022-09-23T06:00:26.015Z,101506.91
2022-09-23T06:02:53.452Z,101508.84
2022-09-23T06:05:20.890Z,101510.66
2022-09-23T06:07:49.572Z,101510.84
2022-09-23T06:10:17.007Z,101512.31
2022-09-23T06:12:44.996Z,101515.41
2022-09-23T06:15:13.107Z,101510.66
2022-09-23T06:17:40.575Z,101510.66
2022-09-23T06:20:08.507Z,101502.84
2022-09-23T06:22:38.584Z,101510.34
2022-09-23T06:25:09.135Z,101503.63
2022-09-23T06:27:36.519Z,101505.06
2022-09-23T06:30:03.924Z,101502.75
2022-09-23T06:32:31.334Z,101505.41
2022-09-23T06:34:58.794Z,101510.50
2022-09-23T06:37:26.193Z,101508.84
2022-09-23T06:39:54.795Z,101515.22
2022-09-23T06:42:23.540Z,101510.31
2022-09-23T06:44:50.937Z,101507.84
2022-09-23T06:47:18.409Z,101505.22
2022-09-23T06:49:45.859Z,101505.69
2022-09-23T06:52:13.325Z,101507.16
2022-09-23T06:54:40.769Z,101494.91
2022-09-23T06:57:10.074Z,101505.34
2022-09-23T06:59:38.930Z,101507.47
2022-09-23T07:02:06.766Z,101509.78
2022-09-23T07:04:34.215Z,101515.44
2022-09-23T07:07:01.626Z,101514.72
2022-09-23T07:09:29.134Z,101511.94
2022-09-23T07:11:56.543Z,101506.91
2022-09-23T07:14:24.897Z,101507.50
2022-09-23T07:16:53.798Z,101506.03
2022-09-23T07:19:21.165Z,101494.69
2022-09-23T07:21:48.620Z,101498.28
2022-09-23T07:24:16.101Z,101503.88
2022-09-23T07:26:45.688Z,101511.56
2022-09-23T07:29:14.017Z,101509.66
2022-09-23T07:31:41.480Z,101503.47
2022-09-23T07:34:11.502Z,101505.09
2022-09-23T07:36:40.643Z,101505.50
2022-09-23T07:39:09.030Z,101508.09
2022-09-23T07:41:37.105Z,101505.75
2022-09-23T07:44:06.150Z,101504.56
2022-09-23T07:46:35.739Z,101509.25
2022-09-23T07:49:03.601Z,101507.88
2022-09-23T07:51:36.427Z,101510.31
2022-09-23T07:54:05.283Z,101512.59
2022-09-23T07:56:33.248Z,101505.09
2022-09-23T07:59:04.449Z,101506.63
2022-09-23T08:01:33.190Z,101498.38
2022-09-23T08:04:01.566Z,101502.09
2022-09-23T08:06:28.999Z,101497.84
2022-09-23T08:08:59.387Z,101500.66
2022-09-23T08:11:27.231Z,101500.00
2022-09-23T08:13:54.775Z,101449.00
2022-09-23T08:16:22.276Z,101510.31
2022-09-23T08:18:50.150Z,101505.53
2022-09-23T08:21:19.757Z,101521.13
2022-09-23T08:23:47.413Z,101522.09
2022-09-23T08:26:21.403Z,101508.56
2022-09-23T08:28:50.020Z,101519.50
2022-09-23T08:31:17.593Z,101504.31
2022-09-23T08:33:45.143Z,101509.50
2022-09-23T08:36:12.867Z,101508.88
2022-09-23T08:38:40.374Z,101507.25
2022-09-23T08:41:12.169Z,101502.06
2022-09-23T08:43:45.458Z,101505.97
2022-09-23T08:46:14.052Z,101516.47
2022-09-23T08:48:43.313Z,101513.47
2022-09-23T08:51:13.671Z,101513.72
2022-09-23T08:53:42.181Z,101511.56
2022-09-23T08:56:13.174Z,101518.25
2022-09-23T08:58:50.366Z,101483.00
2022-09-23T09:01:20.801Z,101514.59
2022-09-23T09:03:50.467Z,101508.69
2022-09-23T09:06:19.852Z,101509.59
2022-09-23T09:08:52.212Z,101513.72
2022-09-23T09:11:20.326Z,101512.84
2022-09-23T09:13:54.393Z,101511.19
2022-09-23T09:16:57.965Z,101515.22
2022-09-23T09:19:22.025Z,101519.91
2022-09-23T09:21:52.186Z,101511.75
2022-09-23T09:24:22.698Z,101505.97
2022-09-23T09:26:50.303Z,101501.66
2022-09-23T09:29:34.828Z,101506.59
2022-09-23T09:32:12.273Z,101501.91
2022-09-23T09:34:41.677Z,101502.34
2022-09-23T09:37:12.588Z,101503.41
2022-09-23T09:39:40.468Z,101499.19
2022-09-23T09:42:08.340Z,101495.16
2022-09-23T09:44:40.644Z,101495.97
2022-09-23T09:47:16.086Z,101496.31
2022-09-23T09:49:46.656Z,101503.97
2022-09-23T09:52:16.695Z,101505.09
2022-09-23T09:54:44.393Z,101510.50
2022-09-23T09:57:17.587Z,101498.47
2022-09-23T09:59:46.334Z,101493.94
2022-09-23T10:02:14.918Z,101490.09
2022-09-23T10:04:42.329Z,101490.88
2022-09-23T10:07:12.649Z,101482.38
2022-09-23T10:09:41.096Z,101478.47
2022-09-23T10:12:15.297Z,101483.47
2022-09-23T10:14:42.744Z,101475.81
2022-09-23T10:17:16.309Z,101470.97
2022-09-23T10:19:46.672Z,101465.75
2022-09-23T10:22:18.428Z,101474.25
2022-09-23T10:24:48.987Z,101456.47
2022-09-23T10:27:17.160Z,101459.47
2022-09-23T10:29:50.647Z,101459.31
2022-09-23T10:32:25.546Z,101458.50
2022-09-23T10:34:54.448Z,101467.00
2022-09-23T10:37:26.437Z,101464.16
2022-09-23T10:40:11.846Z,101407.78
2022-09-23T10:43:03.526Z,101466.59
2022-09-23T10:45:51.722Z,101464.91
2022-09-23T10:48:24.646Z,101470.06
2022-09-23T10:50:53.694Z,101473.88
2022-09-23T10:53:28.530Z,101469.41
2022-09-23T10:56:05.644Z,101467.34
2022-09-23T10:58:47.666Z,101466.47
2022-09-23T11:01:22.176Z,101463.91
2022-09-23T11:04:14.004Z,101467.75
2022-09-23T11:06:49.459Z,101468.00
2022-09-23T11:09:24.370Z,101468.09
2022-09-23T11:11:59.565Z,101468.50
2022-09-23T11:14:38.796Z,101465.25
2022-09-23T11:17:15.591Z,101467.53
2022-09-23T11:20:00.207Z,101468.81
2022-09-23T11:22:37.867Z,101471.66
2022-09-23T11:25:16.763Z,101460.44
2022-09-23T11:28:02.299Z,101461.00
2022-09-23T11:30:31.949Z,101468.69
2022-09-23T11:33:13.869Z,101468.59
2022-09-23T11:35:45.810Z,101456.81
2022-09-23T11:38:18.694Z,101459.25
2022-09-23T11:40:51.872Z,101452.69
2022-09-23T11:43:21.597Z,101449.81
2022-09-23T11:45:52.620Z,101458.22
2022-09-23T11:48:24.162Z,101453.06
2022-09-23T11:50:55.905Z,101447.59
2022-09-23T11:53:30.414Z,101443.13
2022-09-23T11:56:03.467Z,101442.44
2022-09-23T11:58:32.519Z,101445.63
2022-09-23T12:01:02.049Z,101441.69
2022-09-23T12:03:42.890Z,101441.81
2022-09-23T12:06:15.683Z,101445.34
2022-09-23T12:08:44.579Z,101432.28
2022-09-23T12:11:20.227Z,101431.16
2022-09-23T12:13:50.943Z,101429.72
2022-09-23T12:16:29.963Z,101437.00
2022-09-23T12:19:04.448Z,101425.50
2022-09-23T12:21:50.223Z,101431.06
2022-09-23T12:24:33.918Z,101421.50
2022-09-23T12:27:05.989Z,101418.13
2022-09-23T12:29:35.417Z,101418.00
2022-09-23T12:32:05.395Z,101415.91
2022-09-23T12:34:35.355Z,101415.50
2022-09-23T12:37:03.311Z,101414.59
2022-09-23T12:39:34.428Z,101412.97
2022-09-23T12:42:03.396Z,101410.94
2022-09-23T12:44:32.521Z,101404.75
2022-09-23T12:47:21.193Z,101415.75
2022-09-23T12:49:49.467Z,101406.00
2022-09-23T12:52:26.148Z,101405.84
2022-09-23T12:54:56.957Z,101398.34
2022-09-23T12:57:41.563Z,101405.06
2022-09-23T13:00:22.563Z,101403.00
2022-09-23T13:03:08.203Z,101397.66
2022-09-23T13:06:00.785Z,101400.50
2022-09-23T13:08:28.242Z,101396.38
2022-09-23T13:10:58.681Z,101403.53
2022-09-23T13:13:29.623Z,101394.78
2022-09-23T13:15:57.064Z,101401.59
2022-09-23T13:18:25.668Z,101398.56
2022-09-23T13:20:53.716Z,101394.34
2022-09-23T13:23:25.085Z,101386.75
2022-09-23T13:25:53.782Z,101374.44
2022-09-23T13:28:31.530Z,101382.03
2022-09-23T13:30:59.276Z,101375.34
2022-09-23T13:33:31.669Z,101373.41
2022-09-23T13:36:02.533Z,101376.63
2022-09-23T13:38:31.955Z,101371.22
2022-09-23T13:41:01.062Z,101371.13
2022-09-23T13:43:31.725Z,101367.78
2022-09-23T13:45:59.964Z,101370.31
2022-09-23T13:48:28.352Z,101374.53
2022-09-23T13:50:56.238Z,101373.72
2022-09-23T13:53:26.479Z,101368.97
2022-09-23T13:56:00.388Z,101368.72
2022-09-23T13:58:29.099Z,101367.78
2022-09-23T14:00:57.980Z,101370.19
2022-09-23T14:03:26.837Z,101368.75
2022-09-23T14:05:55.427Z,101361.03
2022-09-23T14:08:23.017Z,101366.44
2022-09-23T14:10:50.798Z,101367.03
2022-09-23T14:13:24.857Z,101357.25
2022-09-23T14:15:54.819Z,101342.06
2022-09-23T14:18:28.807Z,101348.31
2022-09-23T14:20:56.265Z,101347.16
2022-09-23T14:23:23.665Z,101348.41
2022-09-23T14:25:52.178Z,101344.31
2022-09-23T14:28:21.113Z,101339.16
2022-09-23T14:30:48.832Z,101336.94
2022-09-23T14:33:18.625Z,101333.28
2022-09-23T14:35:50.662Z,101334.09
2022-09-23T14:38:40.187Z,101330.00
2022-09-23T14:41:18.138Z,101329.44
2022-09-23T14:43:57.102Z,101331.63
2022-09-23T14:46:25.153Z,101318.13
2022-09-23T14:48:57.054Z,101320.75
2022-09-23T14:51:31.895Z,101309.88
2022-09-23T14:54:14.162Z,101314.44
2022-09-23T14:56:42.380Z,101312.50
2022-09-23T14:59:24.731Z,101309.66
2022-09-23T15:01:52.112Z,101307.25
2022-09-23T15:04:31.302Z,101303.06
2022-09-23T15:07:01.963Z,101304.63
2022-09-23T15:09:31.703Z,101302.53
2022-09-23T15:12:01.022Z,101299.63
2022-09-23T15:14:39.136Z,101306.00
2022-09-23T15:17:16.366Z,101291.69
2022-09-23T15:19:43.884Z,101293.31
2022-09-23T15:22:13.209Z,101290.50
2022-09-23T15:24:44.740Z,101288.50
2022-09-23T15:27:24.409Z,101301.13
2022-09-23T15:29:53.949Z,101304.38
2022-09-23T15:32:21.460Z,101293.72
2022-09-23T15:34:49.769Z,101286.13
2022-09-23T15:37:18.735Z,101291.63
2022-09-23T15:39:46.204Z,101288.88
2022-09-23T15:42:13.607Z,101290.28
2022-09-23T15:44:41.106Z,101283.56
2022-09-23T15:47:13.963Z,101283.31
2022-09-23T15:49:41.409Z,101285.44
2022-09-23T15:52:12.176Z,101276.91
2022-09-23T15:54:41.454Z,101274.94
2022-09-23T15:57:08.849Z,101274.94
2022-09-23T15:59:38.128Z,101274.84
2022-09-23T16:02:08.710Z,101284.91
2022-09-23T16:04:37.016Z,101280.28
2022-09-23T16:07:05.600Z,101287.03
2022-09-23T16:09:32.974Z,101280.13
2022-09-23T16:12:03.276Z,101277.38
2022-09-23T16:14:30.689Z,101269.06
2022-09-23T16:16:58.264Z,101271.94
2022-09-23T16:19:25.735Z,101267.69
2022-09-23T16:21:53.213Z,101273.38
2022-09-23T16:24:25.960Z,101272.94
2022-09-23T16:26:59.772Z,101271.31
2022-09-23T16:29:28.596Z,101277.38
2022-09-23T16:31:56.060Z,101276.63
2022-09-23T16:34:23.515Z,101269.53
2022-09-23T16:36:50.954Z,101275.22
2022-09-23T16:39:20.403Z,101274.59
2022-09-23T16:41:47.827Z,101269.50
2022-09-23T16:44:16.229Z,101278.88
2022-09-23T16:46:45.067Z,101278.06
2022-09-23T16:49:13.610Z,101278.06
2022-09-23T16:51:41.046Z,101275.66
2022-09-23T16:54:10.323Z,101276.84
2022-09-23T16:56:38.842Z,101274.44
2022-09-23T16:59:06.328Z,101282.16
2022-09-23T17:01:51.248Z,101274.88
2022-09-23T17:04:21.408Z,101275.44
2022-09-23T17:06:50.393Z,101275.25
2022-09-23T17:09:18.711Z,101281.31
2022-09-23T17:11:47.691Z,101282.31
2022-09-23T17:14:15.345Z,101270.19
2022-09-23T17:16:43.020Z,101277.06
2022-09-23T17:19:11.591Z,101274.19
2022-09-23T17:21:40.593Z,101276.38
2022-09-23T17:24:08.247Z,101277.59
2022-09-23T17:26:35.830Z,101264.00
2022-09-23T17:29:03.333Z,101268.69
2022-09-23T17:31:30.858Z,101258.13
2022-09-23T17:33:58.301Z,101252.69
2022-09-23T17:36:25.737Z,101252.09
2022-09-23T17:38:54.919Z,101259.75
2022-09-23T17:41:22.392Z,101249.47
2022-09-23T17:43:54.324Z,101248.88
2022-09-23T17:46:21.819Z,101244.63
2022-09-23T17:48:50.152Z,101247.28
2022-09-23T17:51:18.791Z,101246.50
2022-09-23T17:53:46.960Z,101252.16
2022-09-23T17:56:16.419Z,101244.88
2022-09-23T17:58:44.571Z,101252.16
2022-09-23T18:01:12.764Z,101244.47
2022-09-23T18:03:43.244Z,101257.00
2022-09-23T18:06:12.405Z,101248.84
2022-09-23T18:08:40.657Z,101248.66
2022-09-23T18:11:16.926Z,101244.19
2022-09-23T18:13:47.552Z,101241.75
2022-09-23T18:16:15.035Z,101242.22
2022-09-23T18:18:42.889Z,101246.81
2022-09-23T18:21:11.089Z,101240.56
2022-09-23T18:23:38.615Z,101244.88
2022-09-23T18:26:13.703Z,101244.81
2022-09-23T18:28:42.739Z,101249.66
2022-09-23T18:31:10.324Z,101250.47
2022-09-23T18:33:37.949Z,101252.72
2022-09-23T18:36:05.956Z,101246.44
2022-09-23T18:38:33.542Z,101242.78
2022-09-23T18:41:01.462Z,101247.81
2022-09-23T18:43:37.239Z,101241.28
2022-09-23T18:46:11.717Z,101242.09
2022-09-23T18:48:57.135Z,101241.84
2022-09-23T18:51:25.819Z,101240.28
2022-09-23T18:53:57.419Z,101245.38
2022-09-23T18:56:25.977Z,101242.28
2022-09-23T18:58:54.524Z,101246.53
2022-09-23T19:01:24.122Z,101247.53
2022-09-23T19:03:54.882Z,101244.31
2022-09-23T19:06:22.353Z,101244.53
2022-09-23T19:08:50.539Z,101240.28
2022-09-23T19:11:17.967Z,101247.91
2022-09-23T19:13:45.792Z,101242.88
2022-09-23T19:16:14.150Z,101241.69
2022-09-23T19:18:44.311Z,101246.38
2022-09-23T19:21:12.676Z,101235.63
2022-09-23T19:23:40.528Z,101242.22
2022-09-23T19:26:09.174Z,101234.75
2022-09-23T19:28:36.906Z,101240.03
2022-09-23T19:31:09.722Z,101236.41
2022-09-23T19:33:37.716Z,101239.22
2022-09-23T19:36:08.176Z,101241.84
2022-09-23T19:38:35.597Z,101233.13
2022-09-23T19:41:04.006Z,101237.41
2022-09-23T19:43:31.417Z,101234.75
2022-09-23T19:45:58.862Z,101236.97
2022-09-23T19:48:26.349Z,101226.81
2022-09-23T19:50:53.740Z,101234.28
2022-09-23T19:53:27.860Z,101222.78
2022-09-23T19:55:56.177Z,101234.28
2022-09-23T19:58:24.685Z,101229.88
2022-09-23T20:00:52.439Z,101228.25
2022-09-23T20:03:19.884Z,101226.81
2022-09-23T20:05:55.015Z,101235.53
2022-09-23T20:08:23.775Z,101233.56
2022-09-23T20:10:51.179Z,101233.38
2022-09-23T20:13:18.619Z,101229.91
2022-09-23T20:15:46.254Z,101225.88
2022-09-23T20:18:13.698Z,101228.13
2022-09-23T20:20:41.136Z,101228.06
2022-09-23T20:23:08.545Z,101216.78
2022-09-23T20:25:51.211Z,101220.66
2022-09-23T20:28:21.119Z,101219.38
2022-09-23T20:30:48.936Z,101219.56
2022-09-23T20:33:16.432Z,101222.00
2022-09-23T20:35:44.175Z,101219.38
2022-09-23T20:38:11.602Z,101221.56
2022-09-23T20:40:40.484Z,101218.75
2022-09-23T20:43:07.914Z,101214.31
2022-09-23T20:45:35.393Z,101219.00
2022-09-23T20:48:03.268Z,101213.97
2022-09-23T20:50:30.775Z,101206.47
2022-09-23T20:52:58.138Z,101199.00
2022-09-23T20:55:25.587Z,101199.53
2022-09-23T20:57:54.346Z,101201.75
2022-09-23T21:00:21.770Z,101189.88
2022-09-23T21:02:49.147Z,101199.34
2022-09-23T21:05:17.917Z,101191.72
2022-09-23T21:07:46.769Z,101185.44
2022-09-23T21:10:14.403Z,101186.34
2022-09-23T21:12:41.808Z,101184.69
2022-09-23T21:15:11.097Z,101184.22
2022-09-23T21:17:38.650Z,101188.72
2022-09-23T21:20:06.485Z,101187.34
2022-09-23T21:22:33.975Z,101185.06
2022-09-23T21:25:26.946Z,101187.66
2022-09-23T21:27:52.442Z,101190.56
2022-09-23T21:30:21.364Z,101194.38
2022-09-23T21:32:48.759Z,101196.75
2022-09-23T21:35:18.703Z,101184.50
2022-09-23T21:37:46.488Z,101193.56
2022-09-23T21:40:32.140Z,101190.56
2022-09-23T21:43:00.148Z,101185.94
2022-09-23T21:45:28.936Z,101187.31
2022-09-23T21:47:56.319Z,101192.81
2022-09-23T21:50:23.717Z,101185.75
2022-09-23T21:52:51.903Z,101185.69
2022-09-23T21:55:19.460Z,101195.75
2022-09-23T21:57:47.153Z,101189.75
2022-09-23T22:00:14.945Z,101189.03
2022-09-23T22:02:43.697Z,101191.00
2022-09-23T22:05:11.145Z,101196.19
2022-09-23T22:07:38.797Z,101186.94
2022-09-23T22:10:06.885Z,101184.13
2022-09-23T22:12:34.313Z,101190.38
2022-09-23T22:15:01.684Z,101186.53
2022-09-23T22:17:30.111Z,101184.50
2022-09-23T22:19:58.839Z,101187.31
2022-09-23T22:22:26.231Z,101183.44
2022-09-23T22:24:53.700Z,101190.69
2022-09-23T22:27:21.235Z,101182.63
2022-09-23T22:30:06.088Z,101185.66
2022-09-23T22:32:43.270Z,101176.34
2022-09-23T22:35:13.971Z,101171.63
2022-09-23T22:37:41.401Z,101169.31
2022-09-23T22:40:10.385Z,101169.56
2022-09-23T22:42:38.765Z,101167.75
2022-09-23T22:45:06.837Z,101172.66
2022-09-23T22:47:37.051Z,101163.03
2022-09-23T22:50:05.055Z,101164.25
2022-09-23T22:52:34.140Z,101167.22
2022-09-23T22:55:01.844Z,101171.28
2022-09-23T22:57:29.236Z,101159.63
2022-09-23T22:59:56.673Z,101148.84
2022-09-23T23:02:24.179Z,101149.41
2022-09-23T23:04:51.566Z,101146.38
2022-09-23T23:07:21.060Z,101149.66
2022-09-23T23:09:50.407Z,101146.28
2022-09-23T23:12:19.957Z,101143.84
2022-09-23T23:14:47.962Z,101150.03
2022-09-23T23:17:15.389Z,101144.41
2022-09-23T23:19:42.795Z,101138.78
2022-09-23T23:22:10.258Z,101140.34
2022-09-23T23:24:37.732Z,101140.94
2022-09-23T23:27:06.546Z,101145.56
2022-09-23T23:29:33.942Z,101140.78
2022-09-23T23:32:01.415Z,101139.69
2022-09-23T23:34:28.808Z,101132.00
2022-09-23T23:36:56.465Z,101135.63
2022-09-23T23:39:24.491Z,101131.66
2022-09-23T23:41:52.606Z,101133.66
2022-09-23T23:44:21.647Z,101136.28
2022-09-23T23:46:49.309Z,101130.91
2022-09-23T23:49:16.759Z,101130.13
2022-09-23T23:51:44.424Z,101132.19
2022-09-23T23:54:12.038Z,101121.50
2022-09-23T23:56:39.456Z,101126.94
2022-09-23T23:59:07.093Z,101130.75
